Date,TemperatureHighF,TemperatureAvgF,TemperatureLowF,DewpointHighF,DewpointAvgF,DewpointLowF,HumidityHigh,HumidityAvg,HumidityLow,PressureMaxIn,PressureMinIn,WindSpeedMaxMPH,WindSpeedAvgMPH,GustSpeedMaxMPH,PrecipitationSumIn
2013-10-1,76.0,67.4,63.0,65.2,63.2,60.5,96,87,65,29.92,29.87,3,1,5,0.02
2013-10-2,84.8,68.9,58.2,63.4,57.5,51.6,97,73,33,29.89,29.75,8,2,10,0.01
2013-10-3,81.5,69.7,62.5,62.6,60.6,57.2,94,75,44,29.92,29.79,6,1,12,0.00
2013-10-4,74.0,66.7,61.6,64.3,60.9,55.3,92,82,67,30.08,29.91,4,1,5,0.69
2013-10-5,75.9,65.5,55.5,58.9,54.5,48.1,92,70,46,30.14,30.07,3,1,6,0.00
2013-10-6,78.0,65.4,54.9,58.8,53.8,49.7,86,68,40,30.13,30.04,4,1,6,0.00
2013-10-7,75.5,66.5,59.3,60.1,56.9,54.0,89,72,51,30.09,30.03,4,1,6,0.00
2013-10-8,76.8,66.8,57.7,57.3,55.0,52.6,88,67,45,30.10,30.01,6,1,11,0.00
2013-10-9,77.3,65.2,57.5,57.7,55.4,51.6,90,72,44,30.07,29.94,6,2,8,0.00
2013-10-10,75.8,65.1,55.9,58.0,54.7,51.3,92,71,48,30.00,29.89,3,0,4,0.00
2013-10-11,78.1,65.5,52.9,55.2,48.6,40.8,87,59,29,29.95,29.86,4,1,6,0.00
2013-10-12,75.5,62.8,51.6,53.3,47.8,44.5,82,60,35,30.10,29.94,4,1,6,0.00
2013-10-13,71.2,59.4,49.0,52.2,49.6,46.1,91,72,49,30.15,30.08,3,1,6,0.00
2013-10-14,73.4,61.3,49.5,51.8,48.0,46.1,89,65,38,30.17,30.08,4,1,6,0.00
2013-10-15,76.8,63.5,51.5,51.1,48.7,46.2,83,60,36,30.19,30.10,4,1,7,0.00
2013-10-16,80.7,65.4,53.6,49.6,46.5,39.2,78,54,23,30.17,30.07,7,2,9,0.00
2013-10-17,83.1,68.5,55.7,44.6,40.8,33.4,58,39,17,30.09,29.96,7,1,8,0.00
2013-10-18,79.9,69.2,59.1,56.7,45.4,36.9,80,45,26,29.99,29.91,6,2,8,0.00
2013-10-19,76.8,63.8,54.5,55.9,53.8,49.9,94,73,42,30.05,29.96,4,1,6,0.00
2013-10-20,72.3,62.7,54.3,55.3,50.9,45.9,92,68,39,30.11,30.03,3,1,7,0.00
2013-10-21,75.1,62.9,51.8,51.8,47.0,41.3,80,59,32,30.10,29.95,6,2,10,0.00
2013-10-22,64.6,61.2,57.2,56.0,51.4,45.9,90,71,55,29.96,29.86,5,2,10,0.08
2013-10-23,66.1,60.1,56.6,57.9,55.8,54.0,93,86,71,30.07,29.94,4,0,14,0.06
2013-10-24,74.4,63.4,55.0,60.6,55.5,51.5,94,77,54,30.05,29.95,8,2,13,0.00
2013-10-25,74.1,66.6,62.2,56.4,53.5,51.4,77,63,48,29.96,29.84,6,2,8,0.00
2013-10-26,64.8,59.7,56.0,55.5,52.3,48.0,91,77,63,30.18,29.94,5,1,8,0.09
2013-10-27,76.7,62.0,49.2,54.7,50.8,46.9,93,69,43,30.25,30.15,8,2,11,0.00
2013-10-28,78.2,66.8,56.7,55.2,51.0,47.8,77,58,38,30.16,30.01,8,2,9,0.00
2013-10-29,60.9,56.5,50.6,53.1,44.5,34.1,89,66,42,30.10,30.00,10,3,13,0.00
2013-10-30,63.3,52.5,43.8,35.8,33.6,31.3,65,49,33,30.20,30.09,8,3,10,0.00
2013-10-31,64.5,50.7,38.3,36.1,32.4,28.5,78,53,27,30.27,30.18,7,2,8,0.00